Main page
METAR-TAF:

METAR-TAF

Airports :

Cranfield Airport

Cranfield, England

latitude: 52-04N, longitude: 000-37W, elevation: 111 m

Current weather observation

The report was made 13 hours and 51 minutes ago, at 16:20 UTC
Wind 11 kt from the North
Temperature 13°C
Humidity 82%
Pressure 1018 hPa
Visibility 10 km or more
Few clouds at a height of 3200 ft, Cumulonimbus.
showers in vicinity

METAR: EGTC 241620Z 36011KT 9999 VCSH FEW032CB 13/10 Q1018 RESHRA

Time: 07:11 (06:11 UTC)

Forecast

The report was made 16 hours and 14 minutes ago, at 13:57 UTC
Forecast valid from 24 at 15 UTC to 24 at 17 UTC
Wind 10 kt from the North/Northeast
Visibility 10 km or more
Scattered clouds at a height of 3500 ft
Probability 30% :
Temporary
from 24 at 15 UTC to 24 at 17 UTC
Visibility: 8000 m
rain showers

TAF: EGTC 241357Z 2415/2417 02010KT 9999 SCT035 PROB30 TEMPO 2415/2417 8000 SHRA

Weather observations and forecasts of more than 4000 airports (METAR and TAF reports).

The available stations are represented by yellow and red dots on the map.

Hover mouse over dot to see the name of the station.

Then click to see weather observations and forecasts.

To change the map : click on the green buttons with a black cross to zoom in, on the green button with a dash to zoom out, or on the green arrows for adjacent maps.


METAR-TAF: